Cotuit, MA (02635)

4:09 AM EDT on September 02, 2014 (GMT -0400)
WA1JSE Cape Cod | Change Station
CLOSE
Current Station
Personal Weather Station
Location: Osterville, MA
Elevation: 49 ft
Nearby Weather Stations
Active Advisory: Special Statement

Elev 49 ft 41.65 °N, 70.38 °W | Updated 12 seconds ago

Fog
Fog
69.8 °F
Feels Like 69.8 °F
N
0.0
Wind Variable Wind from North
Gusts 0.0 mph

Today
High -- | Low -- °F
--% Chance of Precip.
Yesterday
High -- | Low -- °F
Precip. -- in
6:08 AM 7:13 PM
Waxing Crescent, 49% visible
Pressure 29.92 in
Visibility 0.2 miles
Clouds Overcast 200 ft
Dew Point Not available.
Humidity Not available.
Rainfall 0.00 in
Snow Depth Not available.
UV 0 out of 12
Pollen 4.30 out of 12
Air Quality Not available.
Flu Activity Not available.
METAR KFMH 020755Z AUTO 23005KT 1/4SM FG OVC002 21/21 A2992 RMK AO2 LTG DSNT S

More Conditions Fewer Conditions

Pressure 29.92 in
Visibility 0.2 miles
Clouds Overcast 200 ft
Dew Point Not available.
Humidity Not available.
Rainfall 0.00 in
Snow Depth Not available.
UV 0 out of 12
Pollen 4.30 out of 12
Air Quality Not available.
Flu Activity Not available.
METAR KFMH 020755Z AUTO 23005KT 1/4SM FG OVC002 21/21 A2992 RMK AO2 LTG DSNT S

More Conditions Fewer Conditions

10-Day Weather Forecast

Almanac

Astronomy

Sep. 02, 2014 Rise Set
Actual Time 6:08 AM EDT 7:13 PM EDT
Civil Twilight 5:40 AM EDT 7:41 PM EDT
Nautical Twilight 5:06 AM EDT 8:15 PM EDT
Astronomical Twilight 4:30 AM EDT 8:51 PM EDT
Moon 1:55 PM EDT 11:58 PM EDT
Length of Visible Light 14h 01m
Length of Day
13h 04m
Tomorrow will be 2m 41s shorter.
Waxing Crescent, 49% of the Moon is Illuminated
Today
Waxing Crescent
Sep 2
First Quarter
Sep 8
Full
Sep 15
Last Quarter
Sep 24
New

Today's Extremes

State Highs State Lows

Community

WunderPhotos

Upload Photos

1,749,587 photos uploaded!

WunderBlogs® & News

Nearby

Air Quality

  Air Quality AQ Index Pollutant
Yesterday Good
OZONE
Tuesday Moderate
PM2.5
Tuesday Good
OZONE

Snow Depth

Station Depth Elevation
No new snow has been reported.

Earthquake Activity

City Distance Mag. Time & Date
No recent earthquake activity has been reported nearby.
Minimum magnitude displayed is 2.5.

Coastal Water Temperatures

Place Temperature
Nantucket Island, MA 73.0 °F
Woods Hole, MA 71.1 °F
Fall River, MA 75.0 °F
Boston, MA 66.9 °F

Nearby Weather Stations